RYR61LJ LEPA-LEZL
Flight info
| Callsign | RYR61LJ |
|---|---|
| Flight time | 1h 19m |
| Altitude | 36000 |
| Route | EPAMA N733 VLC M985 MAMIS |
| Aircraft | B738/M-SDE2E3FGHIRWXY/LB1 |
Departure
| Time | 2026-05-06 11:59 |
|---|---|
| Airport | Palma de Mallorca Airport (LEPA) |
Arrival
| Time | 2026-05-06 13:19 |
|---|---|
| Airport | Seville Airport (LEZL) |
| Time | Latitude | Longitude | Altitude | Speed | Heading |
|---|---|---|---|---|---|
| 2026-05-06 11:38 | 39.54757 | 2.73648 | 35 ft | 0 kts | 58° |
| 2026-05-06 11:47 | 39.54757 | 2.73647 | 35 ft | 2 kts | 58° |
| 2026-05-06 11:47 | 39.54748 | 2.73629 | 33 ft | 2 kts | 58° |
| 2026-05-06 11:47 | 39.54739 | 2.73611 | 34 ft | 2 kts | 57° |
| 2026-05-06 11:47 | 39.54730 | 2.73594 | 34 ft | 2 kts | 58° |
| 2026-05-06 11:48 | 39.54724 | 2.73574 | 33 ft | 2 kts | 105° |
| 2026-05-06 11:48 | 39.54732 | 2.73559 | 33 ft | 1 kts | 144° |
| 2026-05-06 11:48 | 39.54734 | 2.73557 | 33 ft | 0 kts | 145° |
| 2026-05-06 11:50 | 39.54727 | 2.73563 | 32 ft | 7 kts | 146° |
| 2026-05-06 11:51 | 39.54675 | 2.73608 | 35 ft | 9 kts | 147° |
| 2026-05-06 11:51 | 39.54617 | 2.73619 | 35 ft | 8 kts | 191° |
| 2026-05-06 11:51 | 39.54586 | 2.73664 | 35 ft | 7 kts | 104° |
| 2026-05-06 11:51 | 39.54600 | 2.73727 | 34 ft | 7 kts | 57° |
| 2026-05-06 11:52 | 39.54628 | 2.73784 | 35 ft | 8 kts | 58° |
| 2026-05-06 11:52 | 39.54664 | 2.73862 | 35 ft | 12 kts | 59° |
| 2026-05-06 11:52 | 39.54714 | 2.73972 | 35 ft | 16 kts | 59° |
| 2026-05-06 11:52 | 39.54773 | 2.74098 | 35 ft | 16 kts | 50° |
| 2026-05-06 11:53 | 39.54873 | 2.74089 | 35 ft | 15 kts | 328° |
| 2026-05-06 11:53 | 39.54963 | 2.74018 | 35 ft | 15 kts | 328° |
| 2026-05-06 11:53 | 39.55050 | 2.73950 | 35 ft | 14 kts | 329° |
| 2026-05-06 11:53 | 39.55133 | 2.73885 | 34 ft | 14 kts | 328° |
| 2026-05-06 11:54 | 39.55216 | 2.73818 | 35 ft | 15 kts | 328° |
| 2026-05-06 11:54 | 39.55307 | 2.73747 | 35 ft | 16 kts | 328° |
| 2026-05-06 11:54 | 39.55403 | 2.73671 | 33 ft | 17 kts | 328° |
| 2026-05-06 11:54 | 39.55515 | 2.73581 | 30 ft | 21 kts | 328° |
| 2026-05-06 11:55 | 39.55635 | 2.73488 | 28 ft | 13 kts | 340° |
| 2026-05-06 11:55 | 39.55693 | 2.73562 | 26 ft | 13 kts | 63° |
| 2026-05-06 11:55 | 39.55733 | 2.73662 | 27 ft | 12 kts | 63° |
| 2026-05-06 11:55 | 39.55774 | 2.73759 | 24 ft | 12 kts | 56° |
| 2026-05-06 11:56 | 39.55820 | 2.73850 | 26 ft | 12 kts | 58° |
| 2026-05-06 11:56 | 39.55862 | 2.73939 | 22 ft | 12 kts | 58° |
| 2026-05-06 11:56 | 39.55905 | 2.74027 | 21 ft | 12 kts | 58° |
| 2026-05-06 11:56 | 39.55948 | 2.74119 | 20 ft | 12 kts | 58° |
| 2026-05-06 11:57 | 39.55993 | 2.74214 | 20 ft | 12 kts | 60° |
| 2026-05-06 11:57 | 39.56048 | 2.74297 | 16 ft | 12 kts | 39° |
| 2026-05-06 11:57 | 39.56122 | 2.74345 | 16 ft | 12 kts | 20° |
| 2026-05-06 11:57 | 39.56201 | 2.74357 | 16 ft | 12 kts | 330° |
| 2026-05-06 11:58 | 39.56228 | 2.74266 | 16 ft | 12 kts | 255° |
| 2026-05-06 11:58 | 39.56139 | 2.74075 | 18 ft | 45 kts | 240° |
| 2026-05-06 11:58 | 39.55874 | 2.73512 | 22 ft | 106 kts | 238° |
| 2026-05-06 11:58 | 39.55421 | 2.72564 | 28 ft | 156 kts | 237° |
| 2026-05-06 11:59 | 39.54854 | 2.71271 | 354 ft | 172 kts | 244° |
| 2026-05-06 11:59 | 39.54454 | 2.69818 | 1125 ft | 174 kts | 256° |
| 2026-05-06 11:59 | 39.54231 | 2.68254 | 1660 ft | 189 kts | 258° |
| 2026-05-06 11:59 | 39.53981 | 2.66568 | 2431 ft | 191 kts | 258° |
| 2026-05-06 12:00 | 39.53735 | 2.64857 | 3188 ft | 200 kts | 261° |
| 2026-05-06 12:00 | 39.53517 | 2.62956 | 3522 ft | 228 kts | 263° |
| 2026-05-06 12:00 | 39.53356 | 2.60932 | 3873 ft | 249 kts | 271° |
| 2026-05-06 12:00 | 39.53720 | 2.58665 | 4366 ft | 264 kts | 288° |
| 2026-05-06 12:01 | 39.53884 | 2.57999 | 4598 ft | 266 kts | 287° |
| 2026-05-06 12:01 | 39.54247 | 2.56369 | 5159 ft | 269 kts | 284° |
| 2026-05-06 12:01 | 39.54684 | 2.53997 | 6055 ft | 270 kts | 281° |
| 2026-05-06 12:01 | 39.55035 | 2.51591 | 6881 ft | 272 kts | 278° |
| 2026-05-06 12:02 | 39.55318 | 2.49168 | 7729 ft | 272 kts | 277° |
| 2026-05-06 12:02 | 39.55550 | 2.46737 | 8672 ft | 270 kts | 275° |
| 2026-05-06 12:02 | 39.55745 | 2.44311 | 9537 ft | 271 kts | 274° |
| 2026-05-06 12:02 | 39.55915 | 2.41857 | 10264 ft | 277 kts | 273° |
| 2026-05-06 12:03 | 39.56074 | 2.39271 | 10480 ft | 300 kts | 273° |
| 2026-05-06 12:03 | 39.56228 | 2.36518 | 10794 ft | 317 kts | 272° |
| 2026-05-06 12:03 | 39.56378 | 2.33647 | 11475 ft | 321 kts | 272° |
| 2026-05-06 12:03 | 39.56521 | 2.30738 | 12271 ft | 323 kts | 272° |
| 2026-05-06 12:04 | 39.56659 | 2.27821 | 13112 ft | 325 kts | 272° |
| 2026-05-06 12:04 | 39.56794 | 2.24894 | 13969 ft | 326 kts | 272° |
| 2026-05-06 12:04 | 39.56927 | 2.21947 | 14702 ft | 329 kts | 271° |
| 2026-05-06 12:04 | 39.57058 | 2.18970 | 15414 ft | 333 kts | 271° |
| 2026-05-06 12:05 | 39.57184 | 2.16093 | 16098 ft | 337 kts | 271° |
| 2026-05-06 12:05 | 39.57305 | 2.13289 | 16769 ft | 340 kts | 271° |
| 2026-05-06 12:05 | 39.57401 | 2.11059 | 17293 ft | 342 kts | 271° |
| 2026-05-06 12:05 | 39.57533 | 2.07945 | 18008 ft | 346 kts | 271° |
| 2026-05-06 12:06 | 39.57665 | 2.04848 | 18645 ft | 350 kts | 270° |
| 2026-05-06 12:06 | 39.57786 | 2.01982 | 19240 ft | 351 kts | 270° |
| 2026-05-06 12:06 | 39.57891 | 1.99471 | 19771 ft | 353 kts | 270° |
| 2026-05-06 12:06 | 39.58022 | 1.96336 | 20401 ft | 355 kts | 270° |
| 2026-05-06 12:07 | 39.58155 | 1.93133 | 21030 ft | 357 kts | 270° |
| 2026-05-06 12:07 | 39.58287 | 1.89910 | 21655 ft | 360 kts | 270° |
| 2026-05-06 12:07 | 39.58420 | 1.86664 | 22299 ft | 361 kts | 270° |
| 2026-05-06 12:07 | 39.58552 | 1.83397 | 22917 ft | 363 kts | 270° |
| 2026-05-06 12:08 | 39.58684 | 1.80113 | 23495 ft | 366 kts | 270° |
| 2026-05-06 12:08 | 39.58816 | 1.76809 | 23978 ft | 369 kts | 270° |
| 2026-05-06 12:08 | 39.58947 | 1.73511 | 24479 ft | 370 kts | 270° |
| 2026-05-06 12:08 | 39.59079 | 1.70168 | 24978 ft | 372 kts | 270° |
| 2026-05-06 12:09 | 39.59211 | 1.66805 | 25466 ft | 373 kts | 270° |
| 2026-05-06 12:09 | 39.59342 | 1.63438 | 25941 ft | 375 kts | 270° |
| 2026-05-06 12:09 | 39.59473 | 1.60046 | 26401 ft | 377 kts | 270° |
| 2026-05-06 12:09 | 39.59603 | 1.56633 | 26845 ft | 379 kts | 270° |
| 2026-05-06 12:10 | 39.59733 | 1.53207 | 27283 ft | 381 kts | 270° |
| 2026-05-06 12:10 | 39.59862 | 1.49802 | 27763 ft | 383 kts | 270° |
| 2026-05-06 12:10 | 39.59992 | 1.46350 | 28214 ft | 384 kts | 269° |
| 2026-05-06 12:10 | 39.60121 | 1.42872 | 28622 ft | 386 kts | 269° |
| 2026-05-06 12:11 | 39.60249 | 1.39397 | 29023 ft | 388 kts | 269° |
| 2026-05-06 12:11 | 39.60261 | 1.35923 | 29403 ft | 388 kts | 264° |
| 2026-05-06 12:11 | 39.60086 | 1.32427 | 29792 ft | 390 kts | 263° |
| 2026-05-06 12:11 | 39.59873 | 1.28941 | 30158 ft | 391 kts | 263° |
| 2026-05-06 12:12 | 39.59651 | 1.25440 | 30598 ft | 389 kts | 263° |
| 2026-05-06 12:12 | 39.59435 | 1.21958 | 31117 ft | 385 kts | 263° |
| 2026-05-06 12:12 | 39.59229 | 1.18513 | 31600 ft | 383 kts | 263° |
| 2026-05-06 12:12 | 39.59029 | 1.15116 | 32008 ft | 382 kts | 263° |
| 2026-05-06 12:13 | 39.58831 | 1.11692 | 32459 ft | 380 kts | 263° |
| 2026-05-06 12:13 | 39.58635 | 1.08286 | 32946 ft | 377 kts | 263° |
| 2026-05-06 12:13 | 39.58441 | 1.04906 | 33391 ft | 375 kts | 263° |
| 2026-05-06 12:13 | 39.58247 | 1.01536 | 33775 ft | 374 kts | 263° |
| 2026-05-06 12:14 | 39.58064 | 0.98375 | 34111 ft | 373 kts | 263° |
| 2026-05-06 12:14 | 39.57868 | 0.95016 | 34405 ft | 373 kts | 263° |
| 2026-05-06 12:14 | 39.57671 | 0.91656 | 34624 ft | 375 kts | 263° |
| 2026-05-06 12:14 | 39.57472 | 0.88280 | 34827 ft | 376 kts | 263° |
| 2026-05-06 12:15 | 39.57274 | 0.84934 | 35044 ft | 378 kts | 263° |
| 2026-05-06 12:15 | 39.57071 | 0.81523 | 35233 ft | 380 kts | 263° |
| 2026-05-06 12:15 | 39.56866 | 0.78092 | 35433 ft | 382 kts | 263° |
| 2026-05-06 12:15 | 39.56660 | 0.74649 | 35719 ft | 382 kts | 263° |
| 2026-05-06 12:16 | 39.56457 | 0.71268 | 35975 ft | 382 kts | 263° |
| 2026-05-06 12:16 | 39.56248 | 0.67813 | 35955 ft | 386 kts | 263° |
| 2026-05-06 12:16 | 39.55826 | 0.60897 | 35967 ft | 385 kts | 263° |
| 2026-05-06 12:17 | 39.55407 | 0.54044 | 35968 ft | 378 kts | 263° |
| 2026-05-06 12:17 | 39.54990 | 0.47293 | 35972 ft | 378 kts | 263° |
| 2026-05-06 12:18 | 39.54567 | 0.40490 | 35966 ft | 378 kts | 263° |
| 2026-05-06 12:18 | 39.54139 | 0.33680 | 35966 ft | 379 kts | 263° |
| 2026-05-06 12:19 | 39.53705 | 0.26871 | 35972 ft | 379 kts | 263° |
| 2026-05-06 12:19 | 39.53264 | 0.20095 | 35971 ft | 380 kts | 263° |
| 2026-05-06 12:20 | 39.52815 | 0.13260 | 35966 ft | 380 kts | 263° |
| 2026-05-06 12:20 | 39.52363 | 0.06424 | 35958 ft | 380 kts | 263° |
| 2026-05-06 12:21 | 39.51984 | 0.00742 | 35962 ft | 380 kts | 263° |
| 2026-05-06 12:21 | 39.51545 | -0.05795 | 35965 ft | 381 kts | 263° |
| 2026-05-06 12:22 | 39.51081 | -0.12633 | 35963 ft | 381 kts | 263° |
| 2026-05-06 12:22 | 39.50613 | -0.19483 | 35959 ft | 381 kts | 263° |
| 2026-05-06 12:23 | 39.50205 | -0.25403 | 35969 ft | 381 kts | 263° |
| 2026-05-06 12:23 | 39.49730 | -0.32253 | 35969 ft | 381 kts | 263° |
| 2026-05-06 12:24 | 39.49251 | -0.39108 | 35961 ft | 381 kts | 263° |
| 2026-05-06 12:24 | 39.48455 | -0.45875 | 35958 ft | 379 kts | 251° |
| 2026-05-06 12:25 | 39.46337 | -0.52109 | 35964 ft | 380 kts | 239° |
| 2026-05-06 12:25 | 39.43218 | -0.57592 | 35961 ft | 381 kts | 234° |
| 2026-05-06 12:26 | 39.39981 | -0.63024 | 35960 ft | 381 kts | 234° |
| 2026-05-06 12:26 | 39.36761 | -0.68468 | 35954 ft | 381 kts | 235° |
| 2026-05-06 12:27 | 39.33548 | -0.73921 | 35949 ft | 380 kts | 235° |
| 2026-05-06 12:27 | 39.30361 | -0.79330 | 35948 ft | 380 kts | 235° |
| 2026-05-06 12:28 | 39.27147 | -0.84771 | 35945 ft | 380 kts | 234° |
| 2026-05-06 12:28 | 39.23952 | -0.90162 | 35953 ft | 380 kts | 234° |
| 2026-05-06 12:29 | 39.20737 | -0.95575 | 35957 ft | 380 kts | 234° |
| 2026-05-06 12:29 | 39.17622 | -1.00812 | 35958 ft | 380 kts | 234° |
| 2026-05-06 12:30 | 39.14418 | -1.06192 | 35951 ft | 380 kts | 234° |
| 2026-05-06 12:30 | 39.11193 | -1.11598 | 35937 ft | 380 kts | 234° |
| 2026-05-06 12:31 | 39.07989 | -1.16962 | 35963 ft | 380 kts | 234° |
| 2026-05-06 12:31 | 39.04764 | -1.22353 | 35957 ft | 380 kts | 234° |
| 2026-05-06 12:32 | 39.01531 | -1.27745 | 35960 ft | 379 kts | 234° |
| 2026-05-06 12:32 | 38.98321 | -1.33102 | 35953 ft | 380 kts | 234° |
| 2026-05-06 12:33 | 38.95084 | -1.38497 | 35961 ft | 380 kts | 234° |
| 2026-05-06 12:33 | 38.91855 | -1.43872 | 35964 ft | 380 kts | 234° |
| 2026-05-06 12:34 | 38.88634 | -1.49226 | 35958 ft | 380 kts | 234° |
| 2026-05-06 12:34 | 38.85392 | -1.54605 | 35972 ft | 380 kts | 234° |
| 2026-05-06 12:35 | 38.82143 | -1.59986 | 35962 ft | 381 kts | 234° |
| 2026-05-06 12:35 | 38.78915 | -1.65325 | 35963 ft | 380 kts | 234° |
| 2026-05-06 12:36 | 38.75688 | -1.70654 | 35964 ft | 380 kts | 234° |
| 2026-05-06 12:36 | 38.72443 | -1.76002 | 35963 ft | 380 kts | 234° |
| 2026-05-06 12:37 | 38.69208 | -1.81319 | 35962 ft | 380 kts | 234° |
| 2026-05-06 12:37 | 38.65956 | -1.86651 | 35961 ft | 379 kts | 234° |
| 2026-05-06 12:38 | 38.62715 | -1.91961 | 35947 ft | 379 kts | 234° |
| 2026-05-06 12:38 | 38.59469 | -1.97272 | 35965 ft | 379 kts | 234° |
| 2026-05-06 12:39 | 38.56306 | -2.02439 | 35956 ft | 379 kts | 234° |
| 2026-05-06 12:39 | 38.53069 | -2.07718 | 35958 ft | 379 kts | 234° |
| 2026-05-06 12:40 | 38.49811 | -2.13024 | 35960 ft | 380 kts | 234° |
| 2026-05-06 12:40 | 38.46550 | -2.18333 | 35953 ft | 380 kts | 234° |
| 2026-05-06 12:41 | 38.43277 | -2.23656 | 35958 ft | 380 kts | 234° |
| 2026-05-06 12:41 | 38.40022 | -2.28943 | 35950 ft | 381 kts | 233° |
| 2026-05-06 12:42 | 38.36752 | -2.34240 | 35943 ft | 381 kts | 233° |
| 2026-05-06 12:42 | 38.33212 | -2.39273 | 35945 ft | 383 kts | 229° |
| 2026-05-06 12:43 | 38.29542 | -2.44155 | 35942 ft | 384 kts | 229° |
| 2026-05-06 12:43 | 38.25846 | -2.49079 | 35932 ft | 383 kts | 229° |
| 2026-05-06 12:44 | 38.22169 | -2.53993 | 35936 ft | 383 kts | 229° |
| 2026-05-06 12:44 | 38.18528 | -2.58863 | 35932 ft | 382 kts | 229° |
| 2026-05-06 12:45 | 38.14864 | -2.63756 | 35915 ft | 381 kts | 229° |
| 2026-05-06 12:46 | 38.09378 | -2.71069 | 35932 ft | 381 kts | 229° |
| 2026-05-06 12:46 | 38.05715 | -2.75944 | 35927 ft | 381 kts | 229° |
| 2026-05-06 12:47 | 38.02044 | -2.80821 | 35913 ft | 381 kts | 229° |
| 2026-05-06 12:47 | 37.98416 | -2.85636 | 35927 ft | 381 kts | 229° |
| 2026-05-06 12:48 | 37.94752 | -2.90485 | 35922 ft | 380 kts | 229° |
| 2026-05-06 12:48 | 37.91078 | -2.95334 | 35895 ft | 381 kts | 229° |
| 2026-05-06 12:49 | 37.87473 | -3.00084 | 35913 ft | 381 kts | 229° |
| 2026-05-06 12:49 | 37.83861 | -3.04839 | 35916 ft | 382 kts | 229° |
| 2026-05-06 12:50 | 37.80170 | -3.09694 | 35922 ft | 383 kts | 229° |
| 2026-05-06 12:50 | 37.76490 | -3.14523 | 35903 ft | 383 kts | 229° |
| 2026-05-06 12:50 | 37.74792 | -3.17114 | 35890 ft | 380 kts | 241° |
| 2026-05-06 12:51 | 37.73699 | -3.20111 | 35910 ft | 375 kts | 250° |
| 2026-05-06 12:51 | 37.73105 | -3.23303 | 35637 ft | 373 kts | 262° |
| 2026-05-06 12:51 | 37.72908 | -3.26534 | 35359 ft | 366 kts | 263° |
| 2026-05-06 12:51 | 37.72762 | -3.29685 | 35029 ft | 361 kts | 263° |
| 2026-05-06 12:52 | 37.72621 | -3.32844 | 34638 ft | 358 kts | 263° |
| 2026-05-06 12:52 | 37.72472 | -3.35964 | 34281 ft | 354 kts | 263° |
| 2026-05-06 12:52 | 37.72315 | -3.39054 | 33930 ft | 351 kts | 263° |
| 2026-05-06 12:52 | 37.72152 | -3.42113 | 33525 ft | 347 kts | 263° |
| 2026-05-06 12:53 | 37.71985 | -3.45149 | 33140 ft | 344 kts | 262° |
| 2026-05-06 12:53 | 37.71818 | -3.48148 | 32786 ft | 341 kts | 262° |
| 2026-05-06 12:53 | 37.71650 | -3.51130 | 32414 ft | 339 kts | 263° |
| 2026-05-06 12:53 | 37.71484 | -3.54088 | 32064 ft | 336 kts | 263° |
| 2026-05-06 12:54 | 37.71318 | -3.57027 | 31709 ft | 334 kts | 263° |
| 2026-05-06 12:54 | 37.71154 | -3.59918 | 31370 ft | 332 kts | 263° |
| 2026-05-06 12:54 | 37.70988 | -3.62817 | 31019 ft | 330 kts | 263° |
| 2026-05-06 12:54 | 37.70820 | -3.65723 | 30548 ft | 332 kts | 263° |
| 2026-05-06 12:55 | 37.70653 | -3.68617 | 30213 ft | 329 kts | 263° |
| 2026-05-06 12:55 | 37.70485 | -3.71500 | 29835 ft | 328 kts | 263° |
| 2026-05-06 12:55 | 37.70321 | -3.74328 | 29439 ft | 326 kts | 263° |
| 2026-05-06 12:55 | 37.70155 | -3.77173 | 29070 ft | 323 kts | 263° |
| 2026-05-06 12:56 | 37.69990 | -3.79987 | 28719 ft | 319 kts | 263° |
| 2026-05-06 12:56 | 37.69825 | -3.82778 | 28374 ft | 317 kts | 263° |
| 2026-05-06 12:56 | 37.69662 | -3.85542 | 28013 ft | 315 kts | 263° |
| 2026-05-06 12:56 | 37.69498 | -3.88304 | 27659 ft | 313 kts | 263° |
| 2026-05-06 12:57 | 37.69335 | -3.91033 | 27326 ft | 310 kts | 263° |
| 2026-05-06 12:57 | 37.69173 | -3.93736 | 26988 ft | 308 kts | 264° |
| 2026-05-06 12:57 | 37.69011 | -3.96424 | 26659 ft | 307 kts | 264° |
| 2026-05-06 12:57 | 37.68849 | -3.99112 | 26325 ft | 307 kts | 264° |
| 2026-05-06 12:58 | 37.68695 | -4.01659 | 26015 ft | 307 kts | 264° |
| 2026-05-06 12:58 | 37.68531 | -4.04344 | 25696 ft | 313 kts | 264° |
| 2026-05-06 12:58 | 37.68360 | -4.07130 | 25358 ft | 323 kts | 264° |
| 2026-05-06 12:58 | 37.68186 | -4.09968 | 24999 ft | 324 kts | 264° |
| 2026-05-06 12:59 | 37.68011 | -4.12808 | 24634 ft | 323 kts | 264° |
| 2026-05-06 12:59 | 37.67838 | -4.15628 | 24293 ft | 322 kts | 265° |
| 2026-05-06 12:59 | 37.67664 | -4.18441 | 23944 ft | 321 kts | 265° |
| 2026-05-06 12:59 | 37.67489 | -4.21250 | 23581 ft | 320 kts | 265° |
| 2026-05-06 13:00 | 37.67314 | -4.24054 | 23193 ft | 319 kts | 265° |
| 2026-05-06 13:00 | 37.67140 | -4.26838 | 22808 ft | 318 kts | 265° |
| 2026-05-06 13:00 | 37.66965 | -4.29625 | 22448 ft | 316 kts | 265° |
| 2026-05-06 13:00 | 37.66794 | -4.32344 | 22106 ft | 314 kts | 265° |
| 2026-05-06 13:01 | 37.66620 | -4.35086 | 21761 ft | 312 kts | 265° |
| 2026-05-06 13:01 | 37.66447 | -4.37807 | 21424 ft | 310 kts | 265° |
| 2026-05-06 13:01 | 37.66274 | -4.40513 | 21095 ft | 308 kts | 265° |
| 2026-05-06 13:01 | 37.66102 | -4.43196 | 20762 ft | 306 kts | 265° |
| 2026-05-06 13:02 | 37.65930 | -4.45875 | 20429 ft | 304 kts | 265° |
| 2026-05-06 13:02 | 37.65762 | -4.48483 | 20107 ft | 303 kts | 264° |
| 2026-05-06 13:02 | 37.65590 | -4.51140 | 19752 ft | 306 kts | 264° |
| 2026-05-06 13:02 | 37.65410 | -4.53891 | 19419 ft | 325 kts | 264° |
| 2026-05-06 13:03 | 37.65221 | -4.56788 | 19069 ft | 336 kts | 264° |
| 2026-05-06 13:03 | 37.65026 | -4.59755 | 18650 ft | 341 kts | 264° |
| 2026-05-06 13:03 | 37.64830 | -4.62742 | 18224 ft | 342 kts | 264° |
| 2026-05-06 13:03 | 37.64634 | -4.65726 | 17742 ft | 341 kts | 264° |
| 2026-05-06 13:04 | 37.64436 | -4.68714 | 17257 ft | 340 kts | 264° |
| 2026-05-06 13:04 | 37.64239 | -4.71673 | 16787 ft | 338 kts | 264° |
| 2026-05-06 13:04 | 37.64072 | -4.74178 | 16398 ft | 337 kts | 264° |
| 2026-05-06 13:04 | 37.63876 | -4.77114 | 15939 ft | 336 kts | 264° |
| 2026-05-06 13:05 | 37.63678 | -4.80055 | 15490 ft | 335 kts | 264° |
| 2026-05-06 13:05 | 37.63481 | -4.82986 | 15039 ft | 334 kts | 264° |
| 2026-05-06 13:05 | 37.63284 | -4.85898 | 14606 ft | 333 kts | 264° |
| 2026-05-06 13:05 | 37.63085 | -4.88815 | 14172 ft | 332 kts | 264° |
| 2026-05-06 13:06 | 37.62888 | -4.91706 | 13751 ft | 331 kts | 264° |
| 2026-05-06 13:06 | 37.62690 | -4.94604 | 13273 ft | 330 kts | 264° |
| 2026-05-06 13:06 | 37.62492 | -4.97481 | 12803 ft | 330 kts | 264° |
| 2026-05-06 13:06 | 37.62303 | -5.00226 | 12359 ft | 329 kts | 264° |
| 2026-05-06 13:07 | 37.62113 | -5.02968 | 11928 ft | 328 kts | 264° |
| 2026-05-06 13:07 | 37.61983 | -5.04847 | 11633 ft | 327 kts | 264° |
| 2026-05-06 13:07 | 37.61785 | -5.07700 | 11181 ft | 326 kts | 264° |
| 2026-05-06 13:07 | 37.61586 | -5.10547 | 10743 ft | 325 kts | 264° |
| 2026-05-06 13:08 | 37.61386 | -5.13402 | 10303 ft | 324 kts | 264° |
| 2026-05-06 13:08 | 37.61188 | -5.16237 | 9880 ft | 324 kts | 264° |
| 2026-05-06 13:08 | 37.60989 | -5.19062 | 9444 ft | 322 kts | 264° |
| 2026-05-06 13:08 | 37.60792 | -5.21830 | 9036 ft | 319 kts | 264° |
| 2026-05-06 13:09 | 37.60532 | -5.24576 | 8616 ft | 317 kts | 256° |
| 2026-05-06 13:09 | 37.59611 | -5.27093 | 8211 ft | 315 kts | 237° |
| 2026-05-06 13:09 | 37.58402 | -5.29376 | 7801 ft | 309 kts | 236° |
| 2026-05-06 13:09 | 37.57209 | -5.31575 | 7391 ft | 299 kts | 236° |
| 2026-05-06 13:10 | 37.56051 | -5.33709 | 6989 ft | 291 kts | 236° |
| 2026-05-06 13:10 | 37.54918 | -5.35807 | 6661 ft | 282 kts | 236° |
| 2026-05-06 13:10 | 37.53839 | -5.37813 | 6354 ft | 272 kts | 237° |
| 2026-05-06 13:10 | 37.52797 | -5.39758 | 6043 ft | 264 kts | 236° |
| 2026-05-06 13:11 | 37.51778 | -5.41663 | 5722 ft | 257 kts | 237° |
| 2026-05-06 13:11 | 37.50797 | -5.43499 | 5400 ft | 251 kts | 237° |
| 2026-05-06 13:11 | 37.49844 | -5.45284 | 5114 ft | 245 kts | 237° |
| 2026-05-06 13:11 | 37.48906 | -5.47039 | 4827 ft | 243 kts | 237° |
| 2026-05-06 13:12 | 37.47971 | -5.48789 | 4530 ft | 244 kts | 237° |
| 2026-05-06 13:12 | 37.47019 | -5.50572 | 4244 ft | 250 kts | 237° |
| 2026-05-06 13:12 | 37.46058 | -5.52370 | 3949 ft | 251 kts | 237° |
| 2026-05-06 13:12 | 37.45083 | -5.54191 | 3687 ft | 249 kts | 236° |
| 2026-05-06 13:13 | 37.44128 | -5.55974 | 3395 ft | 243 kts | 237° |
| 2026-05-06 13:13 | 37.43190 | -5.57724 | 3111 ft | 236 kts | 237° |
| 2026-05-06 13:13 | 37.42301 | -5.59396 | 2992 ft | 230 kts | 239° |
| 2026-05-06 13:13 | 37.41862 | -5.61266 | 2979 ft | 225 kts | 270° |
| 2026-05-06 13:14 | 37.41906 | -5.63242 | 2994 ft | 223 kts | 270° |
| 2026-05-06 13:14 | 37.41892 | -5.65148 | 3002 ft | 213 kts | 269° |
| 2026-05-06 13:14 | 37.41880 | -5.66911 | 2992 ft | 197 kts | 270° |
| 2026-05-06 13:14 | 37.41887 | -5.68557 | 2960 ft | 185 kts | 270° |
| 2026-05-06 13:15 | 37.41885 | -5.70123 | 2789 ft | 172 kts | 270° |
| 2026-05-06 13:15 | 37.41879 | -5.71578 | 2585 ft | 160 kts | 269° |
| 2026-05-06 13:15 | 37.41871 | -5.72936 | 2406 ft | 152 kts | 269° |
| 2026-05-06 13:15 | 37.41864 | -5.74222 | 2191 ft | 148 kts | 269° |
| 2026-05-06 13:16 | 37.41858 | -5.75483 | 2004 ft | 144 kts | 269° |
| 2026-05-06 13:16 | 37.41857 | -5.76747 | 1738 ft | 145 kts | 269° |
| 2026-05-06 13:16 | 37.41835 | -5.78010 | 1495 ft | 143 kts | 267° |
| 2026-05-06 13:16 | 37.41821 | -5.79247 | 1354 ft | 139 kts | 270° |
| 2026-05-06 13:17 | 37.41850 | -5.80452 | 1191 ft | 138 kts | 269° |
| 2026-05-06 13:17 | 37.41842 | -5.81669 | 970 ft | 140 kts | 268° |
| 2026-05-06 13:17 | 37.41825 | -5.82908 | 765 ft | 143 kts | 269° |
| 2026-05-06 13:17 | 37.41830 | -5.84174 | 616 ft | 146 kts | 268° |
| 2026-05-06 13:18 | 37.41808 | -5.85467 | 468 ft | 151 kts | 267° |
| 2026-05-06 13:18 | 37.41806 | -5.86784 | 254 ft | 153 kts | 268° |
| 2026-05-06 13:18 | 37.41801 | -5.88102 | 112 ft | 145 kts | 269° |
| 2026-05-06 13:18 | 37.41795 | -5.89217 | 99 ft | 107 kts | 270° |
| 2026-05-06 13:19 | 37.41807 | -5.89741 | 98 ft | 33 kts | 293° |
| 2026-05-06 13:19 | 37.41891 | -5.89823 | 97 ft | 0 kts | 336° |
| 2026-05-06 13:19 | 37.41920 | -5.89839 | 96 ft | 9 kts | 337° |
| 2026-05-06 13:19 | 37.41979 | -5.89871 | 96 ft | 10 kts | 336° |
| 2026-05-06 13:20 | 37.42035 | -5.89901 | 94 ft | 8 kts | 338° |
| 2026-05-06 13:20 | 37.42084 | -5.89939 | 93 ft | 8 kts | 317° |
| 2026-05-06 13:20 | 37.42123 | -5.89989 | 94 ft | 7 kts | 314° |
| 2026-05-06 13:20 | 37.42148 | -5.90020 | 93 ft | 0 kts | 315° |
| 2026-05-06 13:21 | 37.42154 | -5.90028 | 93 ft | 0 kts | 314° |